Time,TemperatureF,DewpointF,PressureIn,WindDirection,WindDirectionDegrees,WindSpeedMPH,WindSpeedGustMPH,Humidity,HourlyPrecipIn,Conditions,Clouds,dailyrainin,SoftwareType,DateUTC
2013-07-20 00:04:00,83.1,55.6,29.47,SSW,193,10.5,10.5,39,0.00,,---,0.00,VWS V13.01,2013-07-20 04:04:00,
2013-07-20 00:09:00,82.9,56.2,29.47,SSW,193,10.5,10.5,40,0.00,,---,0.00,VWS V13.01,2013-07-20 04:09:00,
2013-07-20 00:14:00,82.8,56.0,29.47,SSW,193,10.5,10.5,40,0.00,,---,0.00,VWS V13.01,2013-07-20 04:14:00,
2013-07-20 00:19:00,82.6,56.5,29.47,SSW,193,10.5,10.5,41,0.00,,---,0.00,VWS V13.01,2013-07-20 04:19:00,
2013-07-20 00:23:00,82.4,56.4,29.47,SSW,193,10.5,10.5,41,0.00,,---,0.00,VWS V13.01,2013-07-20 04:23:00,
2013-07-20 00:29:00,82.2,56.9,29.47,SSW,193,10.5,10.5,42,0.00,,---,0.00,VWS V13.01,2013-07-20 04:29:00,
2013-07-20 00:34:00,82.2,56.9,29.47,SSW,193,10.5,10.5,42,0.00,,---,0.00,VWS V13.01,2013-07-20 04:34:00,
2013-07-20 00:39:00,82.0,58.0,29.47,SSW,193,10.5,10.5,44,0.00,,---,0.00,VWS V13.01,2013-07-20 04:39:00,
2013-07-20 00:44:00,81.7,57.7,29.47,SSW,193,10.5,10.5,44,0.00,,---,0.00,VWS V13.01,2013-07-20 04:44:00,
2013-07-20 00:54:00,81.5,58.8,29.47,SSW,193,10.5,10.5,46,0.00,,---,0.00,VWS V13.01,2013-07-20 04:54:00,
2013-07-20 00:59:00,81.3,58.6,29.47,SSW,193,10.5,10.5,46,0.00,,---,0.00,VWS V13.01,2013-07-20 04:59:00,
2013-07-20 01:09:00,81.0,59.4,29.47,SSW,193,10.5,10.5,48,0.00,,---,0.00,VWS V13.01,2013-07-20 05:09:00,
2013-07-20 01:13:00,81.0,59.4,29.47,SSW,193,10.5,10.5,48,0.00,,---,0.00,VWS V13.01,2013-07-20 05:13:00,
2013-07-20 01:19:00,81.0,59.4,29.47,SSW,193,10.5,10.5,48,0.00,,---,0.00,VWS V13.01,2013-07-20 05:19:00,
2013-07-20 01:24:00,81.1,59.0,29.47,SSW,193,10.5,10.5,47,0.00,,---,0.00,VWS V13.01,2013-07-20 05:24:00,
2013-07-20 01:29:00,81.5,59.3,29.47,SSW,193,10.5,10.5,47,0.00,,---,0.00,VWS V13.01,2013-07-20 05:29:00,
2013-07-20 01:33:00,81.7,58.3,29.47,SSW,193,10.5,10.5,45,0.00,,---,0.00,VWS V13.01,2013-07-20 05:33:00,
2013-07-20 01:39:00,82.0,58.6,29.47,SSW,193,10.5,10.5,45,0.00,,---,0.00,VWS V13.01,2013-07-20 05:39:00,
2013-07-20 01:44:00,82.2,58.2,29.47,SSW,193,10.5,10.5,44,0.00,,---,0.00,VWS V13.01,2013-07-20 05:44:00,
2013-07-20 01:49:00,82.4,57.7,29.47,SSW,193,10.5,10.5,43,0.00,,---,0.00,VWS V13.01,2013-07-20 05:49:00,
2013-07-20 01:58:00,82.6,57.8,29.47,SSW,193,10.5,10.5,43,0.00,,---,0.00,VWS V13.01,2013-07-20 05:58:00,
2013-07-20 02:04:00,82.6,57.8,29.47,SSW,193,10.5,10.5,43,0.00,,---,0.00,VWS V13.01,2013-07-20 06:04:00,
2013-07-20 02:08:00,82.6,57.8,29.47,SSW,193,10.5,10.5,43,0.00,,---,0.00,VWS V13.01,2013-07-20 06:08:00,
2013-07-20 02:14:00,82.4,57.7,29.47,SSW,193,10.5,10.5,43,0.00,,---,0.00,VWS V13.01,2013-07-20 06:14:00,
2013-07-20 02:23:00,82.4,57.7,29.47,SSW,193,10.5,10.5,43,0.00,,---,0.00,VWS V13.01,2013-07-20 06:23:00,
2013-07-20 02:29:00,82.4,57.7,29.47,SSW,193,10.5,10.5,43,0.00,,---,0.00,VWS V13.01,2013-07-20 06:29:00,
2013-07-20 02:34:00,82.2,57.5,29.47,SSW,193,10.5,10.5,43,0.00,,---,0.00,VWS V13.01,2013-07-20 06:34:00,
2013-07-20 02:39:00,82.2,58.2,29.47,SSW,193,10.5,10.5,44,0.00,,---,0.00,VWS V13.01,2013-07-20 06:39:00,
2013-07-20 02:43:00,82.2,58.2,29.44,SSW,193,10.5,10.5,44,0.00,,---,0.00,VWS V13.01,2013-07-20 06:43:00,
2013-07-20 02:49:00,82.2,58.2,29.44,SSW,193,10.5,10.5,44,0.00,,---,0.00,VWS V13.01,2013-07-20 06:49:00,
2013-07-20 02:54:00,82.0,58.0,29.44,SSW,193,10.5,10.5,44,0.00,,---,0.00,VWS V13.01,2013-07-20 06:54:00,
2013-07-20 02:59:00,81.9,58.5,29.44,SSW,193,10.5,10.5,45,0.00,,---,0.00,VWS V13.01,2013-07-20 06:59:00,
2013-07-20 03:04:00,81.9,58.5,29.44,SSW,193,10.5,10.5,45,0.00,,---,0.00,VWS V13.01,2013-07-20 07:04:00,
2013-07-20 03:08:00,81.7,58.3,29.44,SSW,193,10.5,10.5,45,0.00,,---,0.00,VWS V13.01,2013-07-20 07:08:00,
2013-07-20 03:13:00,81.7,58.3,29.44,SSW,193,10.5,10.5,45,0.00,,---,0.00,VWS V13.01,2013-07-20 07:13:00,
2013-07-20 03:19:00,81.5,58.1,29.44,SSW,193,10.5,10.5,45,0.00,,---,0.00,VWS V13.01,2013-07-20 07:19:00,
2013-07-20 03:24:00,81.5,58.1,29.44,SSW,193,10.5,10.5,45,0.00,,---,0.00,VWS V13.01,2013-07-20 07:24:00,
2013-07-20 03:28:00,81.5,57.5,29.44,SSW,193,10.5,10.5,44,0.00,,---,0.00,VWS V13.01,2013-07-20 07:28:00,
2013-07-20 03:39:00,81.3,57.3,29.44,SSW,193,10.5,10.5,44,0.00,,---,0.00,VWS V13.01,2013-07-20 07:39:00,
2013-07-20 03:44:00,81.3,57.3,29.44,SSW,193,10.5,10.5,44,0.00,,---,0.00,VWS V13.01,2013-07-20 07:44:00,
2013-07-20 03:49:00,81.1,57.2,29.44,SSW,193,10.5,10.5,44,0.00,,---,0.00,VWS V13.01,2013-07-20 07:49:00,
2013-07-20 03:54:00,81.1,56.5,29.44,SSW,193,10.5,10.5,43,0.00,,---,0.00,VWS V13.01,2013-07-20 07:54:00,
2013-07-20 03:58:00,81.1,56.5,29.44,SSW,193,10.5,10.5,43,0.00,,---,0.00,VWS V13.01,2013-07-20 07:58:00,
2013-07-20 04:04:00,81.0,56.4,29.44,SSW,193,10.5,10.5,43,0.00,,---,0.00,VWS V13.01,2013-07-20 08:04:00,
2013-07-20 04:09:00,81.0,56.4,29.44,SSW,193,10.5,10.5,43,0.00,,---,0.00,VWS V13.01,2013-07-20 08:09:00,
2013-07-20 04:14:00,80.8,56.2,29.44,SSW,193,10.5,10.5,43,0.00,,---,0.00,VWS V13.01,2013-07-20 08:14:00,
2013-07-20 04:18:00,80.6,56.7,29.44,SSW,193,10.5,10.5,44,0.00,,---,0.00,VWS V13.01,2013-07-20 08:18:00,
2013-07-20 04:24:00,80.4,57.2,29.44,SSW,193,10.5,10.5,45,0.00,,---,0.00,VWS V13.01,2013-07-20 08:24:00,
2013-07-20 04:29:00,80.2,57.0,29.44,SSW,193,10.5,10.5,45,0.00,,---,0.00,VWS V13.01,2013-07-20 08:29:00,
2013-07-20 04:34:00,80.1,57.4,29.44,SSW,193,10.5,10.5,46,0.00,,---,0.00,VWS V13.01,2013-07-20 08:34:00,
2013-07-20 04:39:00,80.1,57.4,29.44,SSW,193,10.5,10.5,46,0.00,,---,0.00,VWS V13.01,2013-07-20 08:39:00,
2013-07-20 04:43:00,79.7,57.1,29.41,SSW,193,10.5,10.5,46,0.00,,---,0.00,VWS V13.01,2013-07-20 08:43:00,
2013-07-20 04:49:00,79.7,57.1,29.41,SSW,193,10.5,10.5,46,0.00,,---,0.00,VWS V13.01,2013-07-20 08:49:00,
2013-07-20 04:54:00,79.5,57.0,29.41,SSW,193,10.5,10.5,46,0.00,,---,0.00,VWS V13.01,2013-07-20 08:54:00,
2013-07-20 04:58:00,79.5,57.0,29.41,SSW,193,10.5,10.5,46,0.00,,---,0.00,VWS V13.01,2013-07-20 08:58:00,
2013-07-20 05:03:00,79.2,57.8,29.41,SSW,193,10.5,10.5,48,0.00,,---,0.00,VWS V13.01,2013-07-20 09:03:00,
2013-07-20 05:08:00,78.6,59.0,29.41,SSW,193,10.5,10.5,51,0.00,,---,0.00,VWS V13.01,2013-07-20 09:08:00,
2013-07-20 05:14:00,78.4,60.4,29.41,SSW,193,10.5,10.5,54,0.00,,---,0.00,VWS V13.01,2013-07-20 09:14:00,
2013-07-20 05:19:00,78.1,61.1,29.41,SSW,193,10.5,10.5,56,0.00,,---,0.00,VWS V13.01,2013-07-20 09:19:00,
2013-07-20 05:24:00,77.7,61.8,29.41,SSW,193,10.5,10.5,58,0.00,,---,0.00,VWS V13.01,2013-07-20 09:24:00,
2013-07-20 05:29:00,77.5,62.6,29.41,SSW,193,10.5,10.5,60,0.00,,---,0.00,VWS V13.01,2013-07-20 09:29:00,
2013-07-20 05:33:00,77.5,62.6,29.41,SSW,193,10.5,10.5,60,0.00,,---,0.00,VWS V13.01,2013-07-20 09:33:00,
2013-07-20 05:39:00,77.5,62.6,29.41,SSW,193,10.5,10.5,60,0.00,,---,0.00,VWS V13.01,2013-07-20 09:39:00,
2013-07-20 05:44:00,77.4,61.9,29.44,SSW,193,10.5,10.5,59,0.00,,---,0.00,VWS V13.01,2013-07-20 09:44:00,
2013-07-20 05:49:00,77.5,62.6,29.44,SSW,193,10.5,10.5,60,0.00,,---,0.00,VWS V13.01,2013-07-20 09:49:00,
2013-07-20 05:54:00,77.7,61.8,29.44,SSW,193,10.5,10.5,58,0.00,,---,0.00,VWS V13.01,2013-07-20 09:54:00,
2013-07-20 05:59:00,77.9,60.5,29.44,SSW,193,10.5,10.5,55,0.00,,---,0.00,VWS V13.01,2013-07-20 09:59:00,
2013-07-20 06:03:00,78.8,59.7,29.44,SSW,193,10.5,10.5,52,0.00,,---,0.00,VWS V13.01,2013-07-20 10:03:00,
2013-07-20 06:09:00,79.9,57.3,29.44,SSW,193,10.5,10.5,46,0.00,,---,0.00,VWS V13.01,2013-07-20 10:09:00,
2013-07-20 06:14:00,79.9,55.4,29.44,SSW,193,10.5,10.5,43,0.00,,---,0.00,VWS V13.01,2013-07-20 10:14:00,
2013-07-20 06:18:00,80.6,55.4,29.44,SSW,193,10.5,10.5,42,0.00,,---,0.00,VWS V13.01,2013-07-20 10:18:00,
2013-07-20 06:23:00,80.6,54.8,29.44,SSW,193,10.5,10.5,41,0.00,,---,0.00,VWS V13.01,2013-07-20 10:23:00,
2013-07-20 06:29:00,81.0,55.1,29.44,SSW,193,10.5,10.5,41,0.00,,---,0.00,VWS V13.01,2013-07-20 10:29:00,
2013-07-20 06:38:00,84.2,54.4,29.44,SSW,193,10.5,10.5,36,0.00,,---,0.00,VWS V13.01,2013-07-20 10:38:00,
2013-07-20 06:44:00,86.0,51.9,29.44,SSW,193,10.5,10.5,31,0.00,,---,0.00,VWS V13.01,2013-07-20 10:44:00,
2013-07-20 06:49:00,85.8,51.7,29.44,SSW,193,10.5,10.5,31,0.00,,---,0.00,VWS V13.01,2013-07-20 10:49:00,
2013-07-20 06:54:00,84.0,51.0,29.44,SSW,193,10.5,10.5,32,0.00,,---,0.00,VWS V13.01,2013-07-20 10:54:00,
2013-07-20 06:59:00,82.8,51.6,29.44,SSW,193,10.5,10.5,34,0.00,,---,0.00,VWS V13.01,2013-07-20 10:59:00,
2013-07-20 07:04:00,81.7,52.9,29.44,SSW,193,10.5,10.5,37,0.00,,---,0.00,VWS V13.01,2013-07-20 11:04:00,
2013-07-20 07:08:00,81.0,54.4,29.44,SSW,193,10.5,10.5,40,0.00,,---,0.00,VWS V13.01,2013-07-20 11:08:00,
2013-07-20 07:14:00,80.6,54.8,29.44,SSW,193,10.5,10.5,41,0.00,,---,0.00,VWS V13.01,2013-07-20 11:14:00,
2013-07-20 07:19:00,80.2,55.1,29.44,SSW,193,10.5,10.5,42,0.00,,---,0.00,VWS V13.01,2013-07-20 11:19:00,
2013-07-20 07:23:00,80.2,55.1,29.44,SSW,193,10.5,10.5,42,0.00,,---,0.00,VWS V13.01,2013-07-20 11:23:00,
2013-07-20 07:29:00,80.2,55.7,29.44,SSW,193,10.5,10.5,43,0.00,,---,0.00,VWS V13.01,2013-07-20 11:29:00,
2013-07-20 07:34:00,80.2,55.7,29.44,SSW,193,10.5,10.5,43,0.00,,---,0.00,VWS V13.01,2013-07-20 11:34:00,
2013-07-20 07:39:00,80.4,55.9,29.44,SSW,193,10.5,10.5,43,0.00,,---,0.00,VWS V13.01,2013-07-20 11:39:00,
2013-07-20 07:44:00,80.6,56.1,29.47,SSW,193,10.5,10.5,43,0.00,,---,0.00,VWS V13.01,2013-07-20 11:44:00,
2013-07-20 07:53:00,82.2,55.5,29.47,SSW,193,10.5,10.5,40,0.00,,---,0.00,VWS V13.01,2013-07-20 11:53:00,
2013-07-20 07:59:00,82.2,54.8,29.47,SSW,193,10.5,10.5,39,0.00,,---,0.00,VWS V13.01,2013-07-20 11:59:00,
2013-07-20 08:04:00,82.4,55.0,29.47,SSW,193,10.5,10.5,39,0.00,,---,0.00,VWS V13.01,2013-07-20 12:04:00,
2013-07-20 08:08:00,82.2,55.5,29.47,SSW,193,10.5,10.5,40,0.00,,---,0.00,VWS V13.01,2013-07-20 12:08:00,
2013-07-20 08:19:00,81.9,55.2,29.47,SSW,193,10.5,10.5,40,0.00,,---,0.00,VWS V13.01,2013-07-20 12:19:00,
2013-07-20 08:24:00,81.9,55.2,29.47,SSW,193,10.5,10.5,40,0.00,,---,0.00,VWS V13.01,2013-07-20 12:24:00,
2013-07-20 08:29:00,82.4,55.7,29.47,SSW,193,10.5,10.5,40,0.00,,---,0.00,VWS V13.01,2013-07-20 12:29:00,
2013-07-20 08:34:00,82.4,55.0,29.47,SSW,193,10.5,10.5,39,0.00,,---,0.00,VWS V13.01,2013-07-20 12:34:00,
2013-07-20 08:39:00,82.8,56.0,29.47,SSW,193,10.5,10.5,40,0.00,,---,0.00,VWS V13.01,2013-07-20 12:39:00,
2013-07-20 08:43:00,82.8,54.6,29.47,SSW,193,10.5,10.5,38,0.00,,---,0.00,VWS V13.01,2013-07-20 12:43:00,
2013-07-20 08:49:00,82.9,54.8,29.47,SSW,193,10.5,10.5,38,0.00,,---,0.00,VWS V13.01,2013-07-20 12:49:00,
2013-07-20 08:53:00,82.9,55.5,29.47,SSW,193,10.5,10.5,39,0.00,,---,0.00,VWS V13.01,2013-07-20 12:53:00,
2013-07-20 08:58:00,83.1,55.6,29.44,SSW,193,10.5,10.5,39,0.00,,---,0.00,VWS V13.01,2013-07-20 12:58:00,
2013-07-20 09:04:00,83.1,54.9,29.44,SSW,193,10.5,10.5,38,0.00,,---,0.00,VWS V13.01,2013-07-20 13:04:00,
2013-07-20 09:09:00,83.1,54.9,29.44,SSW,193,10.5,10.5,38,0.00,,---,0.00,VWS V13.01,2013-07-20 13:09:00,
2013-07-20 09:14:00,83.1,55.6,29.44,SSW,193,10.5,10.5,39,0.00,,---,0.00,VWS V13.01,2013-07-20 13:14:00,
2013-07-20 09:19:00,82.9,54.8,29.44,SSW,193,10.5,10.5,38,0.00,,---,0.00,VWS V13.01,2013-07-20 13:19:00,
2013-07-20 09:24:00,82.6,54.4,29.44,SSW,193,10.5,10.5,38,0.00,,---,0.00,VWS V13.01,2013-07-20 13:24:00,
2013-07-20 09:28:00,82.4,55.0,29.44,SSW,193,10.5,10.5,39,0.00,,---,0.00,VWS V13.01,2013-07-20 13:28:00,
2013-07-20 09:34:00,82.2,55.5,29.44,SSW,193,10.5,10.5,40,0.00,,---,0.00,VWS V13.01,2013-07-20 13:34:00,
2013-07-20 09:39:00,82.6,55.8,29.44,SSW,193,10.5,10.5,40,0.00,,---,0.00,VWS V13.01,2013-07-20 13:39:00,
2013-07-20 09:49:00,82.8,53.9,29.44,SSW,193,10.5,10.5,37,0.00,,---,0.00,VWS V13.01,2013-07-20 13:49:00,
2013-07-20 09:54:00,83.1,54.2,29.44,SSW,193,10.5,10.5,37,0.00,,---,0.00,VWS V13.01,2013-07-20 13:54:00,
2013-07-20 09:58:00,84.0,57.1,29.44,SSW,193,10.5,10.5,40,0.00,,---,0.00,VWS V13.01,2013-07-20 13:58:00,
2013-07-20 10:04:00,84.7,53.3,29.44,SSW,193,10.5,10.5,34,0.00,,---,0.00,VWS V13.01,2013-07-20 14:04:00,
2013-07-20 10:09:00,85.3,51.2,29.44,SSW,193,10.5,10.5,31,0.00,,---,0.00,VWS V13.01,2013-07-20 14:09:00,
2013-07-20 10:18:00,85.1,51.1,29.44,SSW,193,10.5,10.5,31,0.00,,---,0.00,VWS V13.01,2013-07-20 14:18:00,
2013-07-20 10:24:00,84.9,51.8,29.44,SSW,193,10.5,10.5,32,0.00,,---,0.00,VWS V13.01,2013-07-20 14:24:00,
2013-07-20 10:28:00,85.3,53.8,29.44,SSW,193,10.5,10.5,34,0.00,,---,0.00,VWS V13.01,2013-07-20 14:28:00,
2013-07-20 10:33:00,85.3,52.1,29.44,SSW,193,10.5,10.5,32,0.00,,---,0.00,VWS V13.01,2013-07-20 14:33:00,
2013-07-20 10:38:00,85.8,54.2,29.44,SSW,193,10.5,10.5,34,0.00,,---,0.00,VWS V13.01,2013-07-20 14:38:00,
2013-07-20 10:44:00,85.8,50.8,29.44,SSW,193,10.5,10.5,30,0.00,,---,0.00,VWS V13.01,2013-07-20 14:44:00,
2013-07-20 10:49:00,85.8,51.7,29.44,SSW,193,10.5,10.5,31,0.00,,---,0.00,VWS V13.01,2013-07-20 14:49:00,
2013-07-20 10:54:00,86.2,52.0,29.44,SSW,193,10.5,10.5,31,0.00,,---,0.00,VWS V13.01,2013-07-20 14:54:00,
2013-07-20 10:59:00,86.5,51.5,29.44,SSW,193,10.5,10.5,30,0.00,,---,0.00,VWS V13.01,2013-07-20 14:59:00,
2013-07-20 11:03:00,86.7,51.6,29.44,SSW,193,10.5,10.5,30,0.00,,---,0.00,VWS V13.01,2013-07-20 15:03:00,
2013-07-20 11:09:00,87.1,52.8,29.44,SSW,193,10.5,10.5,31,0.00,,---,0.00,VWS V13.01,2013-07-20 15:09:00,
2013-07-20 11:14:00,87.3,51.2,29.44,SSW,193,10.5,10.5,29,0.00,,---,0.00,VWS V13.01,2013-07-20 15:14:00,
2013-07-20 11:19:00,87.3,51.2,29.44,SSW,193,10.5,10.5,29,0.00,,---,0.00,VWS V13.01,2013-07-20 15:19:00,
2013-07-20 11:24:00,87.4,52.2,29.44,SSW,193,10.5,10.5,30,0.00,,---,0.00,VWS V13.01,2013-07-20 15:24:00,
2013-07-20 11:29:00,87.4,51.3,29.44,SSW,193,10.5,10.5,29,0.00,,---,0.00,VWS V13.01,2013-07-20 15:29:00,
2013-07-20 11:34:00,87.8,51.6,29.44,SSW,193,10.5,10.5,29,0.00,,---,0.00,VWS V13.01,2013-07-20 15:34:00,
2013-07-20 11:39:00,88.2,51.9,29.44,SSW,193,10.5,10.5,29,0.00,,---,0.00,VWS V13.01,2013-07-20 15:39:00,
2013-07-20 11:43:00,88.3,51.1,29.44,SSW,193,10.5,10.5,28,0.00,,---,0.00,VWS V13.01,2013-07-20 15:43:00,
2013-07-20 11:49:00,88.5,51.3,29.44,SSW,193,10.5,10.5,28,0.00,,---,0.00,VWS V13.01,2013-07-20 15:49:00,
2013-07-20 11:54:00,88.7,51.4,29.44,SSW,193,10.5,10.5,28,0.00,,---,0.00,VWS V13.01,2013-07-20 15:54:00,
2013-07-20 11:59:00,88.7,51.4,29.41,SSW,193,10.5,10.5,28,0.00,,---,0.00,VWS V13.01,2013-07-20 15:59:00,
2013-07-20 12:03:00,89.2,49.9,29.41,SSW,193,10.5,10.5,26,0.00,,---,0.00,VWS V13.01,2013-07-20 16:03:00,
2013-07-20 12:09:00,89.4,50.0,29.41,SSW,193,10.5,10.5,26,0.00,,---,0.00,VWS V13.01,2013-07-20 16:09:00,
2013-07-20 12:14:00,89.4,49.0,29.41,SSW,193,10.5,10.5,25,0.00,,---,0.00,VWS V13.01,2013-07-20 16:14:00,
2013-07-20 12:19:00,89.4,47.9,29.41,SSW,193,10.5,10.5,24,0.00,,---,0.00,VWS V13.01,2013-07-20 16:19:00,
2013-07-20 12:24:00,89.6,49.2,29.41,SSW,193,10.5,10.5,25,0.00,,---,0.00,VWS V13.01,2013-07-20 16:24:00,
2013-07-20 12:29:00,89.2,48.8,29.41,SSW,193,10.5,10.5,25,0.00,,---,0.00,VWS V13.01,2013-07-20 16:29:00,
2013-07-20 12:38:00,90.0,47.2,29.41,SSW,193,10.5,10.5,23,0.00,,---,0.00,VWS V13.01,2013-07-20 16:38:00,
2013-07-20 12:43:00,90.3,51.8,29.41,SSW,193,10.5,10.5,27,0.00,,---,0.00,VWS V13.01,2013-07-20 16:43:00,
2013-07-20 12:48:00,90.9,52.3,29.41,SSW,193,10.5,10.5,27,0.00,,---,0.00,VWS V13.01,2013-07-20 16:48:00,
2013-07-20 12:54:00,91.2,50.5,29.41,SSW,193,10.5,10.5,25,0.00,,---,0.00,VWS V13.01,2013-07-20 16:54:00,
2013-07-20 12:59:00,91.2,45.9,29.41,SSW,193,10.5,10.5,21,0.00,,---,0.00,VWS V13.01,2013-07-20 16:59:00,
2013-07-20 13:04:00,91.0,47.0,29.41,SSW,193,10.5,10.5,22,0.00,,---,0.00,VWS V13.01,2013-07-20 17:04:00,
2013-07-20 13:09:00,91.2,45.9,29.41,SSW,193,10.5,10.5,21,0.00,,---,0.00,VWS V13.01,2013-07-20 17:09:00,
2013-07-20 13:13:00,91.8,46.3,29.41,SSW,193,10.5,10.5,21,0.00,,---,0.00,VWS V13.01,2013-07-20 17:13:00,
2013-07-20 13:19:00,92.1,46.6,29.41,SSW,193,10.5,10.5,21,0.00,,---,0.00,VWS V13.01,2013-07-20 17:19:00,
2013-07-20 13:24:00,91.8,43.7,29.41,SSW,193,10.5,10.5,19,0.00,,---,0.00,VWS V13.01,2013-07-20 17:24:00,
2013-07-20 13:28:00,92.1,45.3,29.41,SSW,193,10.5,10.5,20,0.00,,---,0.00,VWS V13.01,2013-07-20 17:28:00,
2013-07-20 13:33:00,92.1,45.3,29.41,SSW,193,10.5,10.5,20,0.00,,---,0.00,VWS V13.01,2013-07-20 17:33:00,
2013-07-20 13:38:00,91.9,43.8,29.41,SSW,193,10.5,10.5,19,0.00,,---,0.00,VWS V13.01,2013-07-20 17:38:00,
2013-07-20 13:44:00,91.9,45.2,29.41,SSW,193,10.5,10.5,20,0.00,,---,0.00,VWS V13.01,2013-07-20 17:44:00,
2013-07-20 13:49:00,92.3,45.5,29.41,SSW,193,10.5,10.5,20,0.00,,---,0.00,VWS V13.01,2013-07-20 17:49:00,
2013-07-20 13:53:00,92.5,44.3,29.41,SSW,193,10.5,10.5,19,0.00,,---,0.00,VWS V13.01,2013-07-20 17:53:00,
2013-07-20 13:59:00,92.5,45.6,29.41,SSW,193,10.5,10.5,20,0.00,,---,0.00,VWS V13.01,2013-07-20 17:59:00,
2013-07-20 14:04:00,92.1,44.0,29.41,SSW,193,10.5,10.5,19,0.00,,---,0.00,VWS V13.01,2013-07-20 18:04:00,
2013-07-20 14:09:00,92.1,42.6,29.41,SSW,193,10.5,10.5,18,0.00,,---,0.00,VWS V13.01,2013-07-20 18:09:00,
2013-07-20 14:19:00,92.8,44.6,29.41,SSW,193,10.5,10.5,19,0.00,,---,0.00,VWS V13.01,2013-07-20 18:19:00,
2013-07-20 14:29:00,93.9,44.0,29.41,SSW,193,10.5,10.5,18,0.00,,---,0.00,VWS V13.01,2013-07-20 18:29:00,
2013-07-20 14:44:00,93.4,43.6,29.41,SSW,193,10.5,10.5,18,0.00,,---,0.00,VWS V13.01,2013-07-20 18:44:00,
2013-07-20 14:49:00,93.4,43.6,29.41,SSW,193,10.5,10.5,18,0.00,,---,0.00,VWS V13.01,2013-07-20 18:49:00,
2013-07-20 14:54:00,93.0,43.3,29.41,SSW,193,10.5,10.5,18,0.00,,---,0.00,VWS V13.01,2013-07-20 18:54:00,
2013-07-20 14:58:00,93.2,42.0,29.41,SSW,193,10.5,10.5,17,0.00,,---,0.00,VWS V13.01,2013-07-20 18:58:00,
2013-07-20 15:03:00,93.6,43.7,29.41,SSW,193,10.5,10.5,18,0.00,,---,0.00,VWS V13.01,2013-07-20 19:03:00,
2013-07-20 15:08:00,93.7,43.9,29.41,SSW,193,10.5,10.5,18,0.00,,---,0.00,VWS V13.01,2013-07-20 19:08:00,
2013-07-20 15:13:00,93.7,43.9,29.41,SSW,193,10.5,10.5,18,0.00,,---,0.00,VWS V13.01,2013-07-20 19:13:00,
2013-07-20 15:19:00,93.7,43.9,29.41,SSW,193,10.5,10.5,18,0.00,,---,0.00,VWS V13.01,2013-07-20 19:19:00,
2013-07-20 15:24:00,93.9,42.5,29.41,SSW,193,10.5,10.5,17,0.00,,---,0.00,VWS V13.01,2013-07-20 19:24:00,
2013-07-20 15:29:00,93.0,41.8,29.38,SSW,193,10.5,10.5,17,0.00,,---,0.00,VWS V13.01,2013-07-20 19:29:00,
2013-07-20 15:34:00,91.2,41.8,29.38,SSW,193,10.5,10.5,18,0.00,,---,0.00,VWS V13.01,2013-07-20 19:34:00,
2013-07-20 15:38:00,89.1,44.1,29.38,SSW,193,10.5,10.5,21,0.00,,---,0.00,VWS V13.01,2013-07-20 19:38:00,
2013-07-20 15:44:00,87.1,48.1,29.41,SSW,193,10.5,10.5,26,0.00,,---,0.00,VWS V13.01,2013-07-20 19:44:00,
2013-07-20 15:53:00,86.7,49.8,29.41,SSW,193,10.5,10.5,28,0.00,,---,0.00,VWS V13.01,2013-07-20 19:53:00,
2013-07-20 16:04:00,88.3,50.2,29.41,SSW,193,10.5,10.5,27,0.00,,---,0.00,VWS V13.01,2013-07-20 20:04:00,
2013-07-20 16:09:00,89.8,45.9,29.41,SSW,193,10.5,10.5,22,0.00,,---,0.00,VWS V13.01,2013-07-20 20:09:00,
2013-07-20 16:14:00,89.6,45.8,29.41,SSW,193,10.5,10.5,22,0.00,,---,0.00,VWS V13.01,2013-07-20 20:14:00,
2013-07-20 16:19:00,89.2,46.6,29.41,SSW,193,10.5,10.5,23,0.00,,---,0.00,VWS V13.01,2013-07-20 20:19:00,
2013-07-20 16:24:00,90.0,43.5,29.41,SSW,193,10.5,10.5,20,0.00,,---,0.00,VWS V13.01,2013-07-20 20:24:00,
2013-07-20 16:29:00,90.9,44.3,29.41,SSW,193,10.5,10.5,20,0.00,,---,0.00,VWS V13.01,2013-07-20 20:29:00,
2013-07-20 16:34:00,94.5,43.0,29.41,SSW,193,10.5,10.5,17,0.00,,---,0.00,VWS V13.01,2013-07-20 20:34:00,
2013-07-20 16:44:00,97.2,38.2,29.41,SSW,193,10.5,10.5,13,0.00,,---,0.00,VWS V13.01,2013-07-20 20:44:00,
2013-07-20 16:49:00,97.3,38.3,29.41,SSW,193,10.5,10.5,13,0.00,,---,0.00,VWS V13.01,2013-07-20 20:49:00,
2013-07-20 16:54:00,97.5,38.5,29.41,SSW,193,10.5,10.5,13,0.00,,---,0.00,VWS V13.01,2013-07-20 20:54:00,
2013-07-20 16:59:00,98.4,39.2,29.41,SSW,193,10.5,10.5,13,0.00,,---,0.00,VWS V13.01,2013-07-20 20:59:00,
2013-07-20 17:04:00,98.6,39.3,29.41,SSW,193,10.5,10.5,13,0.00,,---,0.00,VWS V13.01,2013-07-20 21:04:00,
2013-07-20 17:14:00,98.1,38.9,29.41,SSW,193,10.5,10.5,13,0.00,,---,0.00,VWS V13.01,2013-07-20 21:14:00,
2013-07-20 17:19:00,98.1,38.9,29.41,SSW,193,10.5,10.5,13,0.00,,---,0.00,VWS V13.01,2013-07-20 21:19:00,
2013-07-20 17:23:00,95.7,39.0,29.41,SSW,193,10.5,10.5,14,0.00,,---,0.00,VWS V13.01,2013-07-20 21:23:00,
2013-07-20 17:28:00,93.7,40.8,29.41,SSW,193,10.5,10.5,16,0.00,,---,0.00,VWS V13.01,2013-07-20 21:28:00,
2013-07-20 17:34:00,95.5,42.2,29.41,SSW,193,10.5,10.5,16,0.00,,---,0.00,VWS V13.01,2013-07-20 21:34:00,
2013-07-20 17:44:00,94.5,41.4,29.41,SSW,193,10.5,10.5,16,0.00,,---,0.00,VWS V13.01,2013-07-20 21:44:00,
2013-07-20 17:48:00,92.7,41.5,29.41,SSW,193,10.5,10.5,17,0.00,,---,0.00,VWS V13.01,2013-07-20 21:48:00,
2013-07-20 17:54:00,90.9,41.5,29.41,SSW,193,10.5,10.5,18,0.00,,---,0.00,VWS V13.01,2013-07-20 21:54:00,
2013-07-20 17:59:00,90.0,42.2,29.41,SSW,193,10.5,10.5,19,0.00,,---,0.00,VWS V13.01,2013-07-20 21:59:00,
2013-07-20 18:04:00,89.1,44.1,29.41,SSW,193,10.5,10.5,21,0.00,,---,0.00,VWS V13.01,2013-07-20 22:04:00,
2013-07-20 18:08:00,88.5,43.6,29.41,SSW,193,10.5,10.5,21,0.00,,---,0.00,VWS V13.01,2013-07-20 22:08:00,
2013-07-20 18:13:00,88.0,45.6,29.41,SSW,193,10.5,10.5,23,0.00,,---,0.00,VWS V13.01,2013-07-20 22:13:00,
2013-07-20 18:18:00,87.6,47.5,29.41,SSW,193,10.5,10.5,25,0.00,,---,0.00,VWS V13.01,2013-07-20 22:18:00,
2013-07-20 18:24:00,87.4,47.3,29.41,SSW,193,10.5,10.5,25,0.00,,---,0.00,VWS V13.01,2013-07-20 22:24:00,
2013-07-20 18:28:00,87.3,48.2,29.41,SSW,193,10.5,10.5,26,0.00,,---,0.00,VWS V13.01,2013-07-20 22:28:00,
2013-07-20 18:39:00,87.3,49.2,29.41,SSW,193,10.5,10.5,27,0.00,,---,0.00,VWS V13.01,2013-07-20 22:39:00,
2013-07-20 18:53:00,87.1,50.1,29.41,SSW,193,10.5,10.5,28,0.00,,---,0.00,VWS V13.01,2013-07-20 22:53:00,
2013-07-20 19:03:00,86.9,49.9,29.44,SSW,193,10.5,10.5,28,0.00,,---,0.00,VWS V13.01,2013-07-20 23:03:00,
2013-07-20 19:09:00,86.7,48.8,29.44,SSW,193,10.5,10.5,27,0.00,,---,0.00,VWS V13.01,2013-07-20 23:09:00,
2013-07-20 19:19:00,86.2,49.3,29.44,SSW,193,10.5,10.5,28,0.00,,---,0.00,VWS V13.01,2013-07-20 23:19:00,
2013-07-20 19:24:00,86.0,50.1,29.44,SSW,193,10.5,10.5,29,0.00,,---,0.00,VWS V13.01,2013-07-20 23:24:00,
2013-07-20 19:29:00,85.8,51.7,29.44,SSW,193,10.5,10.5,31,0.00,,---,0.00,VWS V13.01,2013-07-20 23:29:00,
2013-07-20 19:33:00,85.3,51.2,29.44,SSW,193,10.5,10.5,31,0.00,,---,0.00,VWS V13.01,2013-07-20 23:33:00,
2013-07-20 19:39:00,84.9,51.8,29.44,SSW,193,10.5,10.5,32,0.00,,---,0.00,VWS V13.01,2013-07-20 23:39:00,
2013-07-20 19:48:00,84.2,51.2,29.44,SSW,193,10.5,10.5,32,0.00,,---,0.00,VWS V13.01,2013-07-20 23:48:00,
2013-07-20 19:54:00,83.8,51.7,29.44,SSW,193,10.5,10.5,33,0.00,,---,0.00,VWS V13.01,2013-07-20 23:54:00,
2013-07-20 19:59:00,83.5,52.2,29.44,SSW,193,10.5,10.5,34,0.00,,---,0.00,VWS V13.01,2013-07-20 23:59:00,
2013-07-20 20:04:00,83.3,52.8,29.44,SSW,193,10.5,10.5,35,0.00,,---,0.00,VWS V13.01,2013-07-21 00:04:00,
2013-07-20 20:09:00,82.9,52.5,29.44,SSW,193,10.5,10.5,35,0.00,,---,0.00,VWS V13.01,2013-07-21 00:09:00,
2013-07-20 20:14:00,82.8,53.1,29.44,SSW,193,10.5,10.5,36,0.00,,---,0.00,VWS V13.01,2013-07-21 00:14:00,
2013-07-20 20:24:00,82.0,52.5,29.44,SSW,193,10.5,10.5,36,0.00,,---,0.00,VWS V13.01,2013-07-21 00:24:00,
2013-07-20 20:29:00,81.9,53.1,29.47,SSW,193,10.5,10.5,37,0.00,,---,0.00,VWS V13.01,2013-07-21 00:29:00,
2013-07-20 20:38:00,81.5,53.5,29.47,SSW,193,10.5,10.5,38,0.00,,---,0.00,VWS V13.01,2013-07-21 00:38:00,
2013-07-20 20:44:00,81.1,53.9,29.47,SSW,193,10.5,10.5,39,0.00,,---,0.00,VWS V13.01,2013-07-21 00:44:00,
2013-07-20 20:49:00,81.0,53.7,29.47,SSW,193,10.5,10.5,39,0.00,,---,0.00,VWS V13.01,2013-07-21 00:49:00,
2013-07-20 20:54:00,80.2,54.4,29.47,SSW,193,10.5,10.5,41,0.00,,---,0.00,VWS V13.01,2013-07-21 00:54:00,
2013-07-20 20:59:00,80.2,50.9,29.47,SSW,193,10.5,10.5,36,0.00,,---,0.00,VWS V13.01,2013-07-21 00:59:00,
2013-07-20 21:04:00,80.4,51.0,29.47,SSW,193,10.5,10.5,36,0.00,,---,0.00,VWS V13.01,2013-07-21 01:04:00,
2013-07-20 21:09:00,80.6,51.2,29.47,SSW,193,10.5,10.5,36,0.00,,---,0.00,VWS V13.01,2013-07-21 01:09:00,
2013-07-20 21:14:00,80.6,50.5,29.47,SSW,193,10.5,10.5,35,0.00,,---,0.00,VWS V13.01,2013-07-21 01:14:00,
2013-07-20 21:23:00,80.2,50.9,29.47,SSW,193,10.5,10.5,36,0.00,,---,0.00,VWS V13.01,2013-07-21 01:23:00,
2013-07-20 21:29:00,80.2,50.1,29.50,SSW,193,10.5,10.5,35,0.00,,---,0.00,VWS V13.01,2013-07-21 01:29:00,
2013-07-20 21:34:00,80.1,50.0,29.50,SSW,193,10.5,10.5,35,0.00,,---,0.00,VWS V13.01,2013-07-21 01:34:00,
2013-07-20 21:39:00,80.1,50.0,29.50,SSW,193,10.5,10.5,35,0.00,,---,0.00,VWS V13.01,2013-07-21 01:39:00,
2013-07-20 21:43:00,80.1,50.0,29.50,SSW,193,10.5,10.5,35,0.00,,---,0.00,VWS V13.01,2013-07-21 01:43:00,
2013-07-20 21:49:00,79.9,49.8,29.50,SSW,193,10.5,10.5,35,0.00,,---,0.00,VWS V13.01,2013-07-21 01:49:00,
2013-07-20 21:54:00,79.7,49.7,29.50,SSW,193,10.5,10.5,35,0.00,,---,0.00,VWS V13.01,2013-07-21 01:54:00,
2013-07-20 22:04:00,79.3,49.3,29.50,SSW,193,10.5,10.5,35,0.00,,---,0.00,VWS V13.01,2013-07-21 02:04:00,
2013-07-20 22:08:00,79.2,49.2,29.50,SSW,193,10.5,10.5,35,0.00,,---,0.00,VWS V13.01,2013-07-21 02:08:00,
2013-07-20 22:14:00,79.2,49.2,29.50,SSW,193,10.5,10.5,35,0.00,,---,0.00,VWS V13.01,2013-07-21 02:14:00,
2013-07-20 22:19:00,78.8,48.9,29.50,SSW,193,10.5,10.5,35,0.00,,---,0.00,VWS V13.01,2013-07-21 02:19:00,
2013-07-20 22:24:00,78.8,49.6,29.50,SSW,193,10.5,10.5,36,0.00,,---,0.00,VWS V13.01,2013-07-21 02:24:00,
2013-07-20 22:34:00,78.6,50.2,29.50,SSW,193,10.5,10.5,37,0.00,,---,0.00,VWS V13.01,2013-07-21 02:34:00,
2013-07-20 22:39:00,78.3,50.6,29.50,SSW,193,10.5,10.5,38,0.00,,---,0.00,VWS V13.01,2013-07-21 02:39:00,
2013-07-20 22:44:00,77.7,51.5,29.50,SSW,193,10.5,10.5,40,0.00,,---,0.00,VWS V13.01,2013-07-21 02:44:00,
2013-07-20 22:53:00,77.2,51.0,29.50,SSW,193,10.5,10.5,40,0.00,,---,0.00,VWS V13.01,2013-07-21 02:53:00,
2013-07-20 22:58:00,77.2,51.0,29.50,SSW,193,10.5,10.5,40,0.00,,---,0.00,VWS V13.01,2013-07-21 02:58:00,
2013-07-20 23:04:00,77.2,51.0,29.50,SSW,193,10.5,10.5,40,0.00,,---,0.00,VWS V13.01,2013-07-21 03:04:00,
2013-07-20 23:09:00,77.2,51.0,29.50,SSW,193,10.5,10.5,40,0.00,,---,0.00,VWS V13.01,2013-07-21 03:09:00,
2013-07-20 23:14:00,77.2,51.0,29.50,SSW,193,10.5,10.5,40,0.00,,---,0.00,VWS V13.01,2013-07-21 03:14:00,
2013-07-20 23:19:00,77.2,50.3,29.50,SSW,193,10.5,10.5,39,0.00,,---,0.00,VWS V13.01,2013-07-21 03:19:00,
2013-07-20 23:24:00,77.0,50.9,29.50,SSW,193,10.5,10.5,40,0.00,,---,0.00,VWS V13.01,2013-07-21 03:24:00,
2013-07-20 23:29:00,77.0,51.5,29.50,SSW,193,10.5,10.5,41,0.00,,---,0.00,VWS V13.01,2013-07-21 03:29:00,
2013-07-20 23:34:00,77.0,51.5,29.50,SSW,193,10.5,10.5,41,0.00,,---,0.00,VWS V13.01,2013-07-21 03:34:00,
2013-07-20 23:43:00,76.5,51.0,29.53,SSW,193,10.5,10.5,41,0.00,,---,0.00,VWS V13.01,2013-07-21 03:43:00,
2013-07-20 23:49:00,76.3,50.9,29.53,SSW,193,10.5,10.5,41,0.00,,---,0.00,VWS V13.01,2013-07-21 03:49:00,
2013-07-20 23:53:00,76.3,51.5,29.53,SSW,193,10.5,10.5,42,0.00,,---,0.00,VWS V13.01,2013-07-21 03:53:00,
2013-07-20 23:59:00,76.1,51.4,29.53,SSW,193,10.5,10.5,42,0.00,,---,0.00,VWS V13.01,2013-07-21 03:59:00,